createdAt,value
2023-02-26T00:01:25.633Z,0.90
2023-02-26T00:03:55.183Z,1.00
2023-02-26T00:06:22.905Z,1.00
2023-02-26T00:08:49.870Z,1.00
2023-02-26T00:11:16.599Z,1.10
2023-02-26T00:13:45.180Z,1.10
2023-02-26T00:16:30.212Z,1.00
2023-02-26T00:18:59.640Z,1.00
2023-02-26T00:21:27.986Z,1.10
2023-02-26T00:23:55.379Z,1.20
2023-02-26T00:26:23.958Z,1.20
2023-02-26T00:28:51.186Z,1.20
2023-02-26T00:31:20.912Z,1.20
2023-02-26T00:33:47.918Z,1.20
2023-02-26T00:36:43.625Z,1.00
2023-02-26T00:39:19.405Z,0.90
2023-02-26T00:41:46.400Z,1.10
2023-02-26T00:44:13.342Z,1.00
2023-02-26T00:47:05.222Z,1.10
2023-02-26T00:50:12.514Z,1.10
2023-02-26T00:52:58.760Z,0.90
2023-02-26T00:55:26.788Z,0.90
2023-02-26T00:57:53.952Z,0.70
2023-02-26T01:00:21.003Z,0.70
2023-02-26T01:02:48.131Z,0.50
2023-02-26T01:05:15.629Z,0.30
2023-02-26T01:07:54.383Z,0.30
2023-02-26T01:10:21.855Z,0.40
2023-02-26T01:12:50.119Z,0.50
2023-02-26T01:15:17.440Z,0.60
2023-02-26T01:17:47.608Z,0.60
2023-02-26T01:20:26.899Z,0.50
2023-02-26T01:23:06.728Z,0.50
2023-02-26T01:25:54.756Z,0.60
2023-02-26T01:28:22.040Z,0.70
2023-02-26T01:30:49.170Z,0.80
2023-02-26T01:33:25.641Z,0.80
2023-02-26T01:36:20.963Z,1.00
2023-02-26T01:38:59.557Z,1.00
2023-02-26T01:41:49.005Z,1.10
2023-02-26T01:44:39.779Z,1.20
2023-02-26T01:47:20.692Z,1.10
2023-02-26T01:49:47.745Z,1.10
2023-02-26T01:52:49.403Z,1.00
2023-02-26T01:55:22.675Z,1.00
2023-02-26T01:57:53.009Z,0.90
2023-02-26T02:00:19.857Z,0.80
2023-02-26T02:02:46.708Z,0.70
2023-02-26T02:05:39.178Z,0.40
2023-02-26T02:08:06.208Z,0.20
2023-02-26T02:10:32.983Z,0.30
2023-02-26T02:13:20.695Z,0.30
2023-02-26T02:15:50.109Z,0.40
2023-02-26T02:18:37.891Z,0.40
2023-02-26T02:21:38.591Z,0.40
2023-02-26T02:24:17.292Z,0.40
2023-02-26T02:27:01.794Z,0.30
2023-02-26T02:29:59.255Z,0.30
2023-02-26T02:32:37.893Z,0.30
2023-02-26T02:35:20.106Z,0.30
2023-02-26T02:37:54.371Z,0.30
2023-02-26T02:40:29.657Z,0.20
2023-02-26T02:43:14.211Z,0.10
2023-02-26T02:45:49.950Z,0.00
2023-02-26T02:48:39.657Z,0.00
2023-02-26T02:51:24.516Z,-0.10
2023-02-26T02:54:22.923Z,-0.20
2023-02-26T02:57:06.905Z,-0.20
2023-02-26T02:59:41.302Z,-0.10
2023-02-26T03:02:23.290Z,0.00
2023-02-26T03:04:50.296Z,-0.20
2023-02-26T03:07:16.954Z,-0.30
2023-02-26T03:09:44.039Z,-0.30
2023-02-26T03:12:11.007Z,-0.20
2023-02-26T03:14:37.995Z,0.00
2023-02-26T03:17:35.753Z,0.20
2023-02-26T03:20:26.124Z,0.10
2023-02-26T03:23:19.664Z,0.00
2023-02-26T03:25:55.202Z,0.00
2023-02-26T03:28:31.135Z,0.10
2023-02-26T03:31:08.698Z,0.10
2023-02-26T03:33:56.776Z,0.00
2023-02-26T03:36:38.335Z,-0.10
2023-02-26T03:39:14.962Z,-0.10
2023-02-26T03:41:54.472Z,0.10
2023-02-26T03:44:31.978Z,0.40
2023-02-26T03:47:03.070Z,0.30
2023-02-26T03:49:38.736Z,0.50
2023-02-26T03:52:07.400Z,0.60
2023-02-26T03:54:48.247Z,0.80
2023-02-26T03:57:14.939Z,0.90
2023-02-26T03:59:42.116Z,0.90
2023-02-26T04:02:18.541Z,0.90
2023-02-26T04:04:51.162Z,0.90
2023-02-26T04:07:18.846Z,1.00
2023-02-26T04:09:47.748Z,1.20
2023-02-26T04:12:14.892Z,1.20
2023-02-26T04:14:41.574Z,1.10
2023-02-26T04:17:08.242Z,1.10
2023-02-26T04:19:34.922Z,1.10
2023-02-26T04:22:01.633Z,1.00
2023-02-26T04:24:28.344Z,0.80
2023-02-26T04:26:55.872Z,0.60
2023-02-26T04:29:22.531Z,0.50
2023-02-26T04:31:49.485Z,0.60
2023-02-26T04:34:16.227Z,0.60
2023-02-26T04:36:43.966Z,0.50
2023-02-26T04:39:11.049Z,0.10
2023-02-26T04:41:38.415Z,-0.10
2023-02-26T04:44:05.556Z,-0.10
2023-02-26T04:46:32.904Z,0.00
2023-02-26T04:48:59.809Z,0.00
2023-02-26T04:51:26.495Z,0.10
2023-02-26T04:53:53.588Z,0.20
2023-02-26T04:56:20.410Z,0.20
2023-02-26T04:58:47.068Z,0.10
2023-02-26T05:01:14.258Z,0.10
2023-02-26T05:03:40.937Z,-0.10
2023-02-26T05:06:07.857Z,0.00
2023-02-26T05:08:34.545Z,0.20
2023-02-26T05:11:01.304Z,0.40
2023-02-26T05:13:28.016Z,0.60
2023-02-26T05:15:54.920Z,0.70
2023-02-26T05:18:21.970Z,0.80
2023-02-26T05:20:53.541Z,0.90
2023-02-26T05:23:20.382Z,1.00
2023-02-26T05:25:47.432Z,1.10
2023-02-26T05:28:14.263Z,1.10
2023-02-26T05:30:41.619Z,1.20
2023-02-26T05:33:08.369Z,1.20
2023-02-26T05:35:35.252Z,1.20
2023-02-26T05:38:02.001Z,1.20
2023-02-26T05:40:28.922Z,1.20
2023-02-26T05:42:55.531Z,1.30
2023-02-26T05:45:22.150Z,1.30
2023-02-26T05:47:48.731Z,1.20
2023-02-26T05:50:15.374Z,1.00
2023-02-26T05:52:41.984Z,0.90
2023-02-26T05:55:09.544Z,0.60
2023-02-26T05:57:36.281Z,0.40
2023-02-26T06:00:05.060Z,0.50
2023-02-26T06:02:31.762Z,0.50
2023-02-26T06:04:58.388Z,0.30
2023-02-26T06:07:24.996Z,0.10
2023-02-26T06:09:51.768Z,-0.10
2023-02-26T06:12:18.516Z,-0.30
2023-02-26T06:14:45.142Z,-0.30
2023-02-26T06:17:11.827Z,-0.20
2023-02-26T06:19:38.633Z,-0.30
2023-02-26T06:22:05.333Z,-0.30
2023-02-26T06:24:31.959Z,-0.30
2023-02-26T06:26:58.560Z,-0.20
2023-02-26T06:29:25.167Z,-0.10
2023-02-26T06:31:51.984Z,-0.10
2023-02-26T06:34:18.806Z,-0.10
2023-02-26T06:36:45.678Z,-0.10
2023-02-26T06:39:15.242Z,-0.20
2023-02-26T06:41:41.865Z,-0.20
2023-02-26T06:44:09.742Z,-0.20
2023-02-26T06:46:36.389Z,-0.30
2023-02-26T06:49:03.071Z,-0.40
2023-02-26T06:51:30.787Z,-0.40
2023-02-26T06:53:57.729Z,-0.30
2023-02-26T06:56:25.092Z,-0.20
2023-02-26T06:58:51.931Z,-0.30
2023-02-26T07:01:18.770Z,-0.20
2023-02-26T07:03:45.431Z,-0.30
2023-02-26T07:06:26.357Z,-0.20
2023-02-26T07:08:54.171Z,-0.10
2023-02-26T07:11:20.891Z,0.10
2023-02-26T07:13:47.578Z,0.50
2023-02-26T07:16:14.297Z,0.40
2023-02-26T07:18:40.904Z,0.40
2023-02-26T07:21:07.615Z,0.40
2023-02-26T07:23:34.374Z,0.50
2023-02-26T07:26:02.309Z,0.60
2023-02-26T07:28:29.001Z,0.70
2023-02-26T07:30:56.866Z,0.70
2023-02-26T07:33:24.966Z,0.70
2023-02-26T07:35:51.698Z,0.70
2023-02-26T07:38:19.621Z,0.50
2023-02-26T07:40:46.963Z,0.50
2023-02-26T07:43:13.687Z,0.60
2023-02-26T07:45:40.582Z,0.70
2023-02-26T07:48:07.272Z,0.70
2023-02-26T07:50:33.897Z,0.70
2023-02-26T07:53:00.796Z,0.70
2023-02-26T07:55:27.714Z,0.80
2023-02-26T07:57:54.458Z,0.90
2023-02-26T08:00:21.454Z,0.90
2023-02-26T08:02:48.321Z,0.90
2023-02-26T08:05:14.912Z,0.90
2023-02-26T08:07:41.650Z,0.90
2023-02-26T08:10:09.211Z,1.00
2023-02-26T08:12:36.724Z,1.00
2023-02-26T08:15:04.421Z,1.10
2023-02-26T08:17:31.187Z,1.20
2023-02-26T08:19:57.886Z,1.20
2023-02-26T08:22:24.561Z,1.20
2023-02-26T08:24:51.242Z,1.10
2023-02-26T08:27:17.920Z,0.70
2023-02-26T08:29:46.213Z,0.70
2023-02-26T08:32:13.607Z,0.70
2023-02-26T08:34:40.427Z,0.70
2023-02-26T08:37:09.283Z,0.70
2023-02-26T08:39:38.306Z,0.80
2023-02-26T08:42:07.180Z,0.80
2023-02-26T08:44:34.321Z,1.00
2023-02-26T08:47:01.079Z,1.20
2023-02-26T08:49:27.758Z,1.30
2023-02-26T08:51:54.541Z,1.30
2023-02-26T08:54:21.499Z,1.40
2023-02-26T08:56:48.128Z,1.40
2023-02-26T08:59:15.096Z,1.50
2023-02-26T09:01:41.872Z,1.50
2023-02-26T09:04:08.789Z,1.50
2023-02-26T09:06:35.528Z,1.60
2023-02-26T09:09:02.345Z,1.60
2023-02-26T09:11:30.717Z,1.60
2023-02-26T09:13:58.930Z,1.70
2023-02-26T09:16:26.524Z,1.70
2023-02-26T09:18:53.421Z,1.70
2023-02-26T09:21:20.143Z,1.80
2023-02-26T09:23:47.021Z,1.80
2023-02-26T09:26:14.760Z,1.70
2023-02-26T09:28:41.546Z,1.70
2023-02-26T09:31:08.518Z,1.70
2023-02-26T09:33:35.895Z,1.80
2023-02-26T09:36:05.640Z,1.80
2023-02-26T09:38:32.364Z,1.80
2023-02-26T09:41:03.287Z,1.90
2023-02-26T09:43:51.720Z,2.00
2023-02-26T09:46:24.736Z,2.10
2023-02-26T09:49:05.654Z,2.10
2023-02-26T09:51:35.216Z,2.10
2023-02-26T09:54:14.338Z,2.20
2023-02-26T09:56:41.264Z,2.20
2023-02-26T09:59:10.202Z,2.20
2023-02-26T10:01:57.141Z,2.20
2023-02-26T10:04:46.914Z,2.10
2023-02-26T10:07:29.347Z,2.10
2023-02-26T10:10:11.894Z,2.10
2023-02-26T10:12:43.098Z,2.10
2023-02-26T10:15:20.679Z,2.10
2023-02-26T10:18:11.759Z,2.10
2023-02-26T10:20:44.809Z,2.10
2023-02-26T10:23:31.766Z,2.10
2023-02-26T10:26:23.663Z,2.10
2023-02-26T10:29:31.834Z,2.10
2023-02-26T10:32:20.148Z,2.10
2023-02-26T10:34:57.011Z,2.10
2023-02-26T10:37:57.020Z,2.10
2023-02-26T10:40:32.831Z,2.10
2023-02-26T10:43:22.051Z,2.10
2023-02-26T10:46:18.880Z,2.00
2023-02-26T10:49:22.850Z,2.10
2023-02-26T10:51:52.712Z,2.10
2023-02-26T10:54:33.743Z,2.10
2023-02-26T10:57:00.757Z,2.10
2023-02-26T10:59:27.609Z,2.50
2023-02-26T11:01:55.325Z,2.10
2023-02-26T11:04:26.404Z,2.10
2023-02-26T11:07:02.723Z,2.10
2023-02-26T11:09:45.635Z,2.10
2023-02-26T11:12:15.595Z,2.20
2023-02-26T11:14:47.618Z,2.20
2023-02-26T11:17:19.391Z,2.20
2023-02-26T11:20:05.358Z,2.30
2023-02-26T11:22:36.257Z,2.30
2023-02-26T11:25:04.029Z,2.30
2023-02-26T11:27:34.875Z,2.40
2023-02-26T11:30:14.714Z,2.30
2023-02-26T11:32:45.415Z,2.40
2023-02-26T11:35:17.965Z,2.40
2023-02-26T11:37:55.897Z,2.40
2023-02-26T11:40:24.259Z,2.40
2023-02-26T11:42:58.039Z,2.40
2023-02-26T11:45:25.351Z,2.50
2023-02-26T11:48:02.166Z,2.50
2023-02-26T11:50:30.423Z,2.50
2023-02-26T11:53:04.525Z,2.50
2023-02-26T11:55:44.493Z,2.50
2023-02-26T11:58:21.933Z,2.60
2023-02-26T12:00:51.785Z,2.60
2023-02-26T12:03:26.301Z,2.60
2023-02-26T12:05:53.290Z,2.60
2023-02-26T12:08:38.732Z,2.70
2023-02-26T12:11:43.259Z,2.70
2023-02-26T12:14:31.688Z,2.70
2023-02-26T12:17:16.523Z,2.70
2023-02-26T12:19:55.079Z,2.60
2023-02-26T12:22:36.211Z,2.60
2023-02-26T12:26:00.192Z,2.70
2023-02-26T12:28:43.271Z,2.70
2023-02-26T12:31:28.088Z,2.80
2023-02-26T12:34:10.496Z,2.80
2023-02-26T12:37:04.830Z,2.90
2023-02-26T12:39:49.490Z,2.90
2023-02-26T12:42:45.234Z,2.80
2023-02-26T12:45:26.829Z,2.80
2023-02-26T12:47:56.230Z,2.80
2023-02-26T12:50:44.046Z,2.70
2023-02-26T12:53:35.672Z,2.70
2023-02-26T12:56:27.153Z,2.70
2023-02-26T12:58:53.744Z,2.60
2023-02-26T13:01:23.537Z,2.70
2023-02-26T13:04:19.328Z,2.70
2023-02-26T13:06:58.327Z,2.70
2023-02-26T13:09:24.920Z,2.60
2023-02-26T13:12:00.856Z,2.60
2023-02-26T13:14:47.968Z,2.60
2023-02-26T13:17:54.737Z,2.60
2023-02-26T13:20:27.184Z,2.60
2023-02-26T13:22:59.486Z,2.60
2023-02-26T13:25:50.948Z,2.60
2023-02-26T13:28:40.825Z,2.60
2023-02-26T13:31:18.771Z,2.70
2023-02-26T13:33:48.417Z,2.70
2023-02-26T13:36:17.078Z,2.80
2023-02-26T13:38:49.849Z,2.80
2023-02-26T13:41:42.351Z,2.90
2023-02-26T13:44:44.338Z,2.80
2023-02-26T13:47:29.876Z,2.80
2023-02-26T13:50:26.139Z,2.70
2023-02-26T13:53:03.210Z,2.60
2023-02-26T13:55:46.297Z,2.60
2023-02-26T13:58:22.292Z,2.70
2023-02-26T14:01:17.051Z,2.90
2023-02-26T14:03:55.663Z,2.90
2023-02-26T14:06:28.294Z,2.90
2023-02-26T14:08:58.848Z,2.90
2023-02-26T14:11:43.703Z,3.00
2023-02-26T14:14:12.063Z,3.00
2023-02-26T14:16:42.226Z,2.90
2023-02-26T14:19:34.228Z,2.90
2023-02-26T14:22:23.879Z,2.90
2023-02-26T14:25:13.726Z,3.00
2023-02-26T14:27:46.537Z,3.10
2023-02-26T14:30:27.077Z,3.10
2023-02-26T14:33:16.682Z,3.20
2023-02-26T14:35:47.328Z,3.10
2023-02-26T14:38:24.057Z,3.30
2023-02-26T14:41:08.950Z,3.30
2023-02-26T14:43:41.503Z,3.40
2023-02-26T14:46:10.913Z,3.50
2023-02-26T14:48:40.836Z,3.60
2023-02-26T14:51:26.480Z,3.50
2023-02-26T14:53:59.311Z,3.40
2023-02-26T14:56:32.046Z,3.40
2023-02-26T14:59:28.317Z,3.30
2023-02-26T15:02:07.117Z,3.20
2023-02-26T15:04:54.662Z,3.10
2023-02-26T15:07:27.737Z,3.10
2023-02-26T15:10:20.826Z,3.10
2023-02-26T15:13:25.249Z,3.00
2023-02-26T15:16:16.649Z,2.90
2023-02-26T15:18:49.169Z,2.90
2023-02-26T15:21:40.578Z,2.80
2023-02-26T15:24:11.675Z,2.80
2023-02-26T15:26:47.751Z,2.80
2023-02-26T15:29:15.482Z,2.70
2023-02-26T15:31:48.025Z,2.80
2023-02-26T15:34:16.372Z,2.80
2023-02-26T15:36:50.903Z,2.70
2023-02-26T15:39:19.606Z,2.70
2023-02-26T15:41:51.732Z,2.70
2023-02-26T15:44:28.407Z,2.70
2023-02-26T15:47:00.161Z,2.70
2023-02-26T15:49:42.503Z,2.70
2023-02-26T15:52:19.382Z,2.70
2023-02-26T15:54:55.279Z,2.70
2023-02-26T15:57:24.270Z,2.60
2023-02-26T15:59:54.661Z,2.50
2023-02-26T16:02:27.361Z,2.50
2023-02-26T16:04:54.086Z,2.50
2023-02-26T16:07:21.508Z,2.50
2023-02-26T16:09:51.556Z,2.50
2023-02-26T16:12:43.605Z,2.60
2023-02-26T16:15:22.916Z,2.50
2023-02-26T16:17:52.077Z,2.40
2023-02-26T16:20:22.569Z,2.40
2023-02-26T16:22:59.076Z,2.40
2023-02-26T16:25:33.301Z,2.40
2023-02-26T16:28:14.728Z,2.40
2023-02-26T16:30:47.243Z,2.30
2023-02-26T16:33:16.699Z,2.30
2023-02-26T16:35:48.008Z,2.30
2023-02-26T16:38:44.115Z,2.30
2023-02-26T16:41:14.659Z,2.30
2023-02-26T16:43:50.218Z,2.30
2023-02-26T16:46:29.250Z,2.30
2023-02-26T16:49:00.622Z,2.30
2023-02-26T16:51:30.957Z,2.30
2023-02-26T16:54:07.166Z,2.20
2023-02-26T16:56:40.967Z,2.20
2023-02-26T16:59:25.869Z,2.20
2023-02-26T17:02:10.364Z,2.20
2023-02-26T17:04:37.522Z,2.20
2023-02-26T17:07:25.361Z,2.10
2023-02-26T17:09:57.399Z,2.10
2023-02-26T17:12:43.766Z,2.00
2023-02-26T17:15:36.549Z,2.00
2023-02-26T17:18:04.098Z,2.00
2023-02-26T17:20:31.630Z,2.00
2023-02-26T17:23:00.241Z,2.00
2023-02-26T17:25:29.965Z,2.00
2023-02-26T17:27:57.125Z,2.00
2023-02-26T17:30:25.503Z,2.00
2023-02-26T17:32:52.192Z,2.20
2023-02-26T17:35:19.206Z,2.00
2023-02-26T17:37:50.850Z,2.00
2023-02-26T17:40:38.546Z,2.00
2023-02-26T17:43:06.624Z,2.00
2023-02-26T17:45:34.909Z,2.00
2023-02-26T17:48:01.636Z,2.10
2023-02-26T17:50:49.917Z,2.10
2023-02-26T17:53:18.620Z,2.10
2023-02-26T17:55:46.812Z,2.10
2023-02-26T17:58:22.646Z,2.10
2023-02-26T18:00:53.151Z,2.00
2023-02-26T18:03:20.936Z,2.00
2023-02-26T18:05:49.396Z,2.00
2023-02-26T18:08:36.189Z,2.00
2023-02-26T18:11:03.921Z,2.00
2023-02-26T18:13:33.919Z,2.00
2023-02-26T18:16:02.736Z,2.00
2023-02-26T18:18:30.468Z,2.00
2023-02-26T18:20:57.567Z,2.00
2023-02-26T18:23:24.867Z,1.90
2023-02-26T18:25:56.953Z,1.90
2023-02-26T18:28:26.661Z,1.90
2023-02-26T18:30:54.258Z,1.90
2023-02-26T18:33:21.609Z,1.90
2023-02-26T18:35:53.148Z,1.90
2023-02-26T18:38:22.157Z,1.80
2023-02-26T18:40:49.716Z,1.80
2023-02-26T18:43:16.746Z,1.80
2023-02-26T18:45:46.066Z,1.70
2023-02-26T18:48:15.929Z,1.70
2023-02-26T18:50:44.432Z,1.70
2023-02-26T18:53:11.429Z,1.70
2023-02-26T18:55:38.154Z,1.70
2023-02-26T18:58:05.577Z,1.70
2023-02-26T19:00:32.522Z,1.80
2023-02-26T19:02:59.167Z,1.70
2023-02-26T19:05:26.631Z,1.70
2023-02-26T19:07:54.354Z,1.70
2023-02-26T19:10:22.016Z,1.70
2023-02-26T19:12:50.707Z,1.70
2023-02-26T19:15:18.104Z,1.70
2023-02-26T19:17:44.762Z,1.70
2023-02-26T19:20:12.653Z,1.70
2023-02-26T19:22:39.979Z,1.70
2023-02-26T19:25:07.275Z,1.70
2023-02-26T19:27:38.138Z,1.70
2023-02-26T19:30:05.942Z,1.70
2023-02-26T19:32:32.979Z,1.70
2023-02-26T19:35:00.162Z,1.70
2023-02-26T19:37:27.082Z,1.70
2023-02-26T19:39:53.741Z,1.70
2023-02-26T19:42:23.182Z,1.70
2023-02-26T19:44:49.879Z,1.70
2023-02-26T19:47:16.880Z,1.70
2023-02-26T19:49:43.556Z,1.70
2023-02-26T19:52:10.253Z,1.70
2023-02-26T19:54:36.915Z,1.70
2023-02-26T19:57:03.594Z,1.70
2023-02-26T19:59:30.304Z,1.60
2023-02-26T20:01:57.025Z,1.60
2023-02-26T20:04:23.758Z,1.60
2023-02-26T20:06:50.627Z,1.60
2023-02-26T20:09:19.003Z,1.60
2023-02-26T20:11:46.065Z,1.60
2023-02-26T20:14:12.757Z,1.60
2023-02-26T20:16:39.525Z,1.60
2023-02-26T20:19:06.435Z,1.60
2023-02-26T20:21:33.156Z,1.50
2023-02-26T20:23:59.789Z,1.50
2023-02-26T20:26:26.510Z,1.50
2023-02-26T20:28:53.204Z,1.50
2023-02-26T20:31:20.078Z,1.50
2023-02-26T20:33:46.933Z,1.40
2023-02-26T20:36:13.842Z,1.40
2023-02-26T20:38:40.585Z,1.40
2023-02-26T20:41:07.338Z,1.40
2023-02-26T20:43:34.059Z,1.40
2023-02-26T20:46:01.439Z,1.40
2023-02-26T20:48:28.194Z,1.40
2023-02-26T20:51:02.268Z,1.40
2023-02-26T20:53:29.086Z,1.30
2023-02-26T20:55:56.080Z,1.30
2023-02-26T20:58:23.786Z,1.30
2023-02-26T21:00:51.209Z,1.30
2023-02-26T21:03:17.939Z,1.30
2023-02-26T21:05:46.331Z,1.20
2023-02-26T21:08:13.903Z,1.20
2023-02-26T21:10:41.350Z,1.20
2023-02-26T21:13:09.356Z,1.20
2023-02-26T21:15:36.048Z,1.20
2023-02-26T21:18:02.781Z,1.20
2023-02-26T21:20:29.548Z,1.20
2023-02-26T21:22:59.161Z,1.20
2023-02-26T21:25:27.389Z,1.20
2023-02-26T21:27:54.066Z,1.20
2023-02-26T21:30:20.888Z,1.20
2023-02-26T21:32:47.568Z,1.20
2023-02-26T21:35:16.088Z,1.20
2023-02-26T21:37:44.497Z,1.20
2023-02-26T21:40:12.897Z,1.20
2023-02-26T21:42:39.530Z,1.20
2023-02-26T21:45:08.157Z,1.20
2023-02-26T21:47:34.871Z,1.20
2023-02-26T21:50:01.597Z,1.20
2023-02-26T21:52:28.987Z,1.20
2023-02-26T21:54:59.691Z,1.20
2023-02-26T21:57:27.169Z,1.20
2023-02-26T21:59:53.903Z,1.20
2023-02-26T22:02:20.814Z,1.20
2023-02-26T22:04:47.526Z,1.20
2023-02-26T22:07:14.344Z,1.20
2023-02-26T22:09:41.747Z,1.20
2023-02-26T22:12:08.463Z,1.20
2023-02-26T22:14:35.230Z,1.10
2023-02-26T22:17:02.034Z,1.10
2023-02-26T22:19:28.679Z,1.20
2023-02-26T22:21:55.355Z,1.20
2023-02-26T22:24:22.056Z,1.10
2023-02-26T22:26:49.416Z,1.10
2023-02-26T22:29:19.005Z,1.10
2023-02-26T22:31:47.289Z,1.20
2023-02-26T22:34:14.542Z,1.20
2023-02-26T22:36:41.262Z,1.20
2023-02-26T22:39:08.120Z,1.20
2023-02-26T22:41:35.763Z,1.20
2023-02-26T22:44:02.885Z,1.30
2023-02-26T22:46:29.571Z,1.30
2023-02-26T22:48:56.958Z,1.30
2023-02-26T22:51:23.927Z,1.30
2023-02-26T22:53:50.847Z,1.30
2023-02-26T22:56:17.656Z,1.30
2023-02-26T22:58:44.594Z,1.30
2023-02-26T23:01:11.347Z,1.40
2023-02-26T23:03:38.386Z,1.40
2023-02-26T23:06:05.480Z,1.40
2023-02-26T23:08:32.170Z,1.40
2023-02-26T23:11:00.667Z,1.30
2023-02-26T23:13:30.618Z,1.30
2023-02-26T23:16:04.964Z,1.30
2023-02-26T23:18:32.966Z,1.30
2023-02-26T23:21:05.161Z,1.30
2023-02-26T23:23:32.549Z,1.30
2023-02-26T23:25:59.240Z,1.30
2023-02-26T23:28:26.698Z,1.30
2023-02-26T23:30:53.433Z,1.20
2023-02-26T23:33:20.165Z,1.20
2023-02-26T23:35:50.035Z,1.20
2023-02-26T23:38:16.771Z,1.20
2023-02-26T23:40:43.505Z,1.20
2023-02-26T23:43:10.192Z,1.20
2023-02-26T23:45:36.888Z,1.10
2023-02-26T23:48:03.573Z,1.10
2023-02-26T23:50:30.373Z,1.10
2023-02-26T23:52:59.848Z,1.10
2023-02-26T23:55:26.497Z,1.10
2023-02-26T23:57:56.187Z,1.10
